sensor_id;sensor_type;location;lat;lon;timestamp;pressure;altitude;pressure_sealevel;temperature;humidity
43071;BME280;36278;47.952;21.714;2023-03-31T00:00:25;99916.59;;;7.53;100.00
43071;BME280;36278;47.952;21.714;2023-03-31T00:02:51;99907.63;;;7.56;100.00
43071;BME280;36278;47.952;21.714;2023-03-31T00:05:18;99905.22;;;7.53;100.00
43071;BME280;36278;47.952;21.714;2023-03-31T00:07:46;99895.63;;;7.52;100.00
43071;BME280;36278;47.952;21.714;2023-03-31T00:10:13;99893.81;;;7.52;100.00
43071;BME280;36278;47.952;21.714;2023-03-31T00:12:38;99903.19;;;7.56;100.00
43071;BME280;36278;47.952;21.714;2023-03-31T00:15:04;99889.59;;;7.63;100.00
43071;BME280;36278;47.952;21.714;2023-03-31T00:17:30;99883.91;;;7.56;100.00
43071;BME280;36278;47.952;21.714;2023-03-31T00:19:58;99894.25;;;7.59;100.00
43071;BME280;36278;47.952;21.714;2023-03-31T00:22:27;99900.66;;;7.55;100.00
43071;BME280;36278;47.952;21.714;2023-03-31T00:24:53;99899.22;;;7.51;100.00
43071;BME280;36278;47.952;21.714;2023-03-31T00:27:19;99891.19;;;7.52;100.00
43071;BME280;36278;47.952;21.714;2023-03-31T00:29:44;99887.72;;;7.52;100.00
43071;BME280;36278;47.952;21.714;2023-03-31T00:32:10;99881.59;;;7.51;100.00
43071;BME280;36278;47.952;21.714;2023-03-31T00:34:36;99886.00;;;7.64;100.00
43071;BME280;36278;47.952;21.714;2023-03-31T00:37:02;99884.66;;;7.58;100.00
43071;BME280;36278;47.952;21.714;2023-03-31T00:39:28;99880.53;;;7.67;100.00
43071;BME280;36278;47.952;21.714;2023-03-31T00:42:01;99877.25;;;7.63;100.00
43071;BME280;36278;47.952;21.714;2023-03-31T00:44:28;99875.34;;;7.65;100.00
43071;BME280;36278;47.952;21.714;2023-03-31T00:47:05;99869.44;;;7.62;100.00
43071;BME280;36278;47.952;21.714;2023-03-31T00:49:45;99859.75;;;7.62;100.00
43071;BME280;36278;47.952;21.714;2023-03-31T00:52:12;99857.00;;;7.64;100.00
43071;BME280;36278;47.952;21.714;2023-03-31T00:54:41;99856.69;;;7.68;100.00
43071;BME280;36278;47.952;21.714;2023-03-31T00:57:08;99848.66;;;7.70;100.00
43071;BME280;36278;47.952;21.714;2023-03-31T00:59:40;99848.78;;;7.68;100.00
43071;BME280;36278;47.952;21.714;2023-03-31T01:02:08;99850.56;;;7.68;100.00
43071;BME280;36278;47.952;21.714;2023-03-31T01:04:42;99847.22;;;7.66;100.00
43071;BME280;36278;47.952;21.714;2023-03-31T01:07:36;99848.06;;;7.66;100.00
43071;BME280;36278;47.952;21.714;2023-03-31T01:10:03;99833.91;;;7.67;100.00
43071;BME280;36278;47.952;21.714;2023-03-31T01:12:30;99832.22;;;7.66;100.00
43071;BME280;36278;47.952;21.714;2023-03-31T01:14:57;99833.69;;;7.70;100.00
43071;BME280;36278;47.952;21.714;2023-03-31T01:17:23;99821.56;;;7.68;100.00
43071;BME280;36278;47.952;21.714;2023-03-31T01:25:26;99802.28;;;7.67;100.00
43071;BME280;36278;47.952;21.714;2023-03-31T01:28:32;99806.31;;;7.60;100.00
43071;BME280;36278;47.952;21.714;2023-03-31T01:42:14;99804.69;;;7.70;100.00
43071;BME280;36278;47.952;21.714;2023-03-31T01:44:58;99801.03;;;7.60;100.00
43071;BME280;36278;47.952;21.714;2023-03-31T01:47:32;99787.63;;;7.63;100.00
43071;BME280;36278;47.952;21.714;2023-03-31T01:55:10;99771.09;;;7.48;100.00
43071;BME280;36278;47.952;21.714;2023-03-31T01:57:48;99751.94;;;7.46;100.00
43071;BME280;36278;47.952;21.714;2023-03-31T02:00:18;99745.41;;;7.52;100.00
43071;BME280;36278;47.952;21.714;2023-03-31T02:03:10;99733.84;;;7.42;100.00
43071;BME280;36278;47.952;21.714;2023-03-31T02:05:51;99768.38;;;7.50;100.00
43071;BME280;36278;47.952;21.714;2023-03-31T02:08:23;99774.09;;;7.44;100.00
43071;BME280;36278;47.952;21.714;2023-03-31T02:10:52;99776.38;;;7.48;100.00
43071;BME280;36278;47.952;21.714;2023-03-31T02:13:19;99770.06;;;7.51;100.00
43071;BME280;36278;47.952;21.714;2023-03-31T02:15:50;99766.06;;;7.45;100.00
43071;BME280;36278;47.952;21.714;2023-03-31T02:18:19;99759.22;;;7.43;100.00
43071;BME280;36278;47.952;21.714;2023-03-31T02:20:47;99757.56;;;7.42;100.00
43071;BME280;36278;47.952;21.714;2023-03-31T02:23:16;99759.13;;;7.44;100.00
43071;BME280;36278;47.952;21.714;2023-03-31T02:25:50;99774.69;;;7.47;100.00
43071;BME280;36278;47.952;21.714;2023-03-31T02:28:23;99785.88;;;7.51;100.00
43071;BME280;36278;47.952;21.714;2023-03-31T02:33:20;99793.91;;;7.49;100.00
43071;BME280;36278;47.952;21.714;2023-03-31T02:35:46;99793.03;;;7.49;100.00
43071;BME280;36278;47.952;21.714;2023-03-31T02:38:11;99797.16;;;7.53;100.00
43071;BME280;36278;47.952;21.714;2023-03-31T02:40:36;99793.91;;;7.49;100.00
43071;BME280;36278;47.952;21.714;2023-03-31T02:43:02;99805.72;;;7.44;100.00
43071;BME280;36278;47.952;21.714;2023-03-31T02:45:43;99805.47;;;7.47;100.00
43071;BME280;36278;47.952;21.714;2023-03-31T02:48:17;99800.44;;;7.44;100.00
43071;BME280;36278;47.952;21.714;2023-03-31T03:02:32;99762.66;;;7.56;100.00
43071;BME280;36278;47.952;21.714;2023-03-31T03:12:41;99761.50;;;7.60;100.00
43071;BME280;36278;47.952;21.714;2023-03-31T03:15:13;99785.63;;;7.67;100.00
43071;BME280;36278;47.952;21.714;2023-03-31T03:17:43;99778.28;;;7.59;100.00
43071;BME280;36278;47.952;21.714;2023-03-31T03:20:10;99779.41;;;7.68;100.00
43071;BME280;36278;47.952;21.714;2023-03-31T03:22:38;99784.44;;;7.71;100.00
43071;BME280;36278;47.952;21.714;2023-03-31T03:25:05;99794.78;;;7.74;100.00
43071;BME280;36278;47.952;21.714;2023-03-31T03:27:31;99795.09;;;7.69;100.00
43071;BME280;36278;47.952;21.714;2023-03-31T03:29:57;99810.59;;;7.74;100.00
43071;BME280;36278;47.952;21.714;2023-03-31T03:32:23;99820.38;;;7.72;100.00
43071;BME280;36278;47.952;21.714;2023-03-31T03:34:48;99814.91;;;7.75;100.00
43071;BME280;36278;47.952;21.714;2023-03-31T03:37:14;99806.59;;;7.68;100.00
43071;BME280;36278;47.952;21.714;2023-03-31T03:39:39;99814.81;;;7.64;100.00
43071;BME280;36278;47.952;21.714;2023-03-31T03:42:05;99809.56;;;7.64;100.00
43071;BME280;36278;47.952;21.714;2023-03-31T03:44:30;99816.31;;;7.68;100.00
43071;BME280;36278;47.952;21.714;2023-03-31T03:46:55;99820.97;;;7.51;100.00
43071;BME280;36278;47.952;21.714;2023-03-31T03:49:21;99824.78;;;7.47;100.00
43071;BME280;36278;47.952;21.714;2023-03-31T03:51:47;99820.44;;;7.46;100.00
43071;BME280;36278;47.952;21.714;2023-03-31T03:54:12;99812.25;;;7.38;100.00
43071;BME280;36278;47.952;21.714;2023-03-31T03:56:38;99812.13;;;7.40;100.00
43071;BME280;36278;47.952;21.714;2023-03-31T03:59:03;99810.03;;;7.45;100.00
43071;BME280;36278;47.952;21.714;2023-03-31T04:01:29;99804.34;;;7.51;100.00
43071;BME280;36278;47.952;21.714;2023-03-31T04:03:54;99796.41;;;7.51;100.00
43071;BME280;36278;47.952;21.714;2023-03-31T04:06:20;99800.94;;;7.49;100.00
43071;BME280;36278;47.952;21.714;2023-03-31T04:08:45;99801.06;;;7.47;100.00
43071;BME280;36278;47.952;21.714;2023-03-31T04:11:18;99804.16;;;7.41;100.00
43071;BME280;36278;47.952;21.714;2023-03-31T04:13:45;99805.38;;;7.48;100.00
43071;BME280;36278;47.952;21.714;2023-03-31T04:16:11;99804.63;;;7.46;100.00
43071;BME280;36278;47.952;21.714;2023-03-31T04:18:36;99806.56;;;7.44;100.00
43071;BME280;36278;47.952;21.714;2023-03-31T04:21:07;99805.47;;;7.47;100.00
43071;BME280;36278;47.952;21.714;2023-03-31T04:23:37;99803.50;;;7.50;100.00
43071;BME280;36278;47.952;21.714;2023-03-31T04:26:10;99810.94;;;7.56;100.00
43071;BME280;36278;47.952;21.714;2023-03-31T04:28:36;99821.94;;;7.38;100.00
43071;BME280;36278;47.952;21.714;2023-03-31T04:31:03;99804.03;;;7.30;100.00
43071;BME280;36278;47.952;21.714;2023-03-31T04:33:30;99820.81;;;7.16;100.00
43071;BME280;36278;47.952;21.714;2023-03-31T04:35:59;99812.91;;;7.16;100.00
43071;BME280;36278;47.952;21.714;2023-03-31T04:38:31;99790.06;;;7.17;100.00
43071;BME280;36278;47.952;21.714;2023-03-31T04:40:58;99807.63;;;7.16;100.00
43071;BME280;36278;47.952;21.714;2023-03-31T04:43:24;99807.63;;;7.16;100.00
43071;BME280;36278;47.952;21.714;2023-03-31T04:45:50;99808.72;;;7.01;100.00
43071;BME280;36278;47.952;21.714;2023-03-31T04:48:16;99810.50;;;7.00;100.00
43071;BME280;36278;47.952;21.714;2023-03-31T04:50:42;99807.00;;;7.00;100.00
43071;BME280;36278;47.952;21.714;2023-03-31T04:53:08;99810.19;;;7.05;100.00
43071;BME280;36278;47.952;21.714;2023-03-31T04:55:34;99801.56;;;7.03;100.00
43071;BME280;36278;47.952;21.714;2023-03-31T04:58:00;99796.81;;;6.95;100.00
43071;BME280;36278;47.952;21.714;2023-03-31T05:00:25;99800.50;;;6.93;100.00
43071;BME280;36278;47.952;21.714;2023-03-31T05:02:51;99801.22;;;6.95;100.00
43071;BME280;36278;47.952;21.714;2023-03-31T05:05:17;99797.44;;;6.99;100.00
43071;BME280;36278;47.952;21.714;2023-03-31T05:07:43;99798.38;;;6.98;100.00
43071;BME280;36278;47.952;21.714;2023-03-31T05:10:08;99793.13;;;6.98;100.00
43071;BME280;36278;47.952;21.714;2023-03-31T05:12:35;99809.44;;;7.03;100.00
43071;BME280;36278;47.952;21.714;2023-03-31T05:15:02;99810.72;;;6.97;100.00
43071;BME280;36278;47.952;21.714;2023-03-31T05:17:31;99802.31;;;6.92;100.00
43071;BME280;36278;47.952;21.714;2023-03-31T05:19:57;99795.66;;;6.87;100.00
43071;BME280;36278;47.952;21.714;2023-03-31T05:22:23;99797.44;;;6.86;100.00
43071;BME280;36278;47.952;21.714;2023-03-31T05:24:49;99797.56;;;6.85;100.00
43071;BME280;36278;47.952;21.714;2023-03-31T05:27:15;99801.97;;;6.97;100.00
43071;BME280;36278;47.952;21.714;2023-03-31T05:29:40;99805.22;;;6.88;100.00
43071;BME280;36278;47.952;21.714;2023-03-31T05:32:06;99800.59;;;6.91;100.00
43071;BME280;36278;47.952;21.714;2023-03-31T05:34:31;99802.19;;;6.94;100.00
43071;BME280;36278;47.952;21.714;2023-03-31T05:36:57;99801.75;;;7.00;100.00
43071;BME280;36278;47.952;21.714;2023-03-31T05:39:23;99801.31;;;7.06;100.00
43071;BME280;36278;47.952;21.714;2023-03-31T05:41:48;99797.13;;;7.03;100.00
43071;BME280;36278;47.952;21.714;2023-03-31T05:44:14;99781.09;;;7.07;100.00
43071;BME280;36278;47.952;21.714;2023-03-31T05:46:40;99786.78;;;7.13;100.00
43071;BME280;36278;47.952;21.714;2023-03-31T05:49:05;99794.69;;;7.13;100.00
43071;BME280;36278;47.952;21.714;2023-03-31T05:51:31;99790.78;;;7.19;100.00
43071;BME280;36278;47.952;21.714;2023-03-31T05:53:57;99791.41;;;7.22;100.00
43071;BME280;36278;47.952;21.714;2023-03-31T05:56:22;99799.13;;;7.25;100.00
43071;BME280;36278;47.952;21.714;2023-03-31T05:58:48;99797.09;;;7.29;100.00
43071;BME280;36278;47.952;21.714;2023-03-31T06:01:15;99773.69;;;7.37;100.00
43071;BME280;36278;47.952;21.714;2023-03-31T06:03:44;99774.69;;;7.60;100.00
43071;BME280;36278;47.952;21.714;2023-03-31T06:06:10;99773.19;;;7.56;100.00
43071;BME280;36278;47.952;21.714;2023-03-31T06:08:37;99775.25;;;7.76;100.00
43071;BME280;36278;47.952;21.714;2023-03-31T06:11:05;99777.94;;;7.87;100.00
43071;BME280;36278;47.952;21.714;2023-03-31T06:13:31;99779.28;;;7.93;100.00
43071;BME280;36278;47.952;21.714;2023-03-31T06:15:58;99783.84;;;7.91;100.00
43071;BME280;36278;47.952;21.714;2023-03-31T06:18:26;99781.94;;;7.93;100.00
43071;BME280;36278;47.952;21.714;2023-03-31T06:20:53;99787.59;;;7.76;100.00
43071;BME280;36278;47.952;21.714;2023-03-31T06:23:20;99789.59;;;7.72;100.00
43071;BME280;36278;47.952;21.714;2023-03-31T06:25:45;99788.16;;;7.68;100.00
43071;BME280;36278;47.952;21.714;2023-03-31T06:28:11;99783.47;;;7.72;100.00
43071;BME280;36278;47.952;21.714;2023-03-31T06:30:36;99790.13;;;7.77;100.00
43071;BME280;36278;47.952;21.714;2023-03-31T06:33:02;99791.91;;;7.77;100.00
43071;BME280;36278;47.952;21.714;2023-03-31T06:35:28;99792.06;;;7.86;100.00
43071;BME280;36278;47.952;21.714;2023-03-31T06:37:53;99791.13;;;7.87;100.00
43071;BME280;36278;47.952;21.714;2023-03-31T06:40:19;99801.91;;;7.84;100.00
43071;BME280;36278;47.952;21.714;2023-03-31T06:42:44;99796.63;;;7.84;100.00
43071;BME280;36278;47.952;21.714;2023-03-31T06:45:10;99800.09;;;8.09;100.00
43071;BME280;36278;47.952;21.714;2023-03-31T06:47:35;99800.84;;;8.11;100.00
43071;BME280;36278;47.952;21.714;2023-03-31T06:50:07;99800.59;;;8.38;100.00
43071;BME280;36278;47.952;21.714;2023-03-31T06:52:33;99810.28;;;8.61;100.00
43071;BME280;36278;47.952;21.714;2023-03-31T06:54:59;99805.75;;;8.75;100.00
43071;BME280;36278;47.952;21.714;2023-03-31T06:57:26;99806.16;;;8.46;100.00
43071;BME280;36278;47.952;21.714;2023-03-31T06:59:51;99811.53;;;8.45;100.00
43071;BME280;36278;47.952;21.714;2023-03-31T07:02:17;99813.16;;;8.34;100.00
43071;BME280;36278;47.952;21.714;2023-03-31T07:04:42;99809.34;;;8.38;100.00
43071;BME280;36278;47.952;21.714;2023-03-31T07:07:08;99812.25;;;8.47;100.00
43071;BME280;36278;47.952;21.714;2023-03-31T07:09:33;99807.00;;;8.47;100.00
43071;BME280;36278;47.952;21.714;2023-03-31T07:11:59;99800.84;;;8.35;100.00
43071;BME280;36278;47.952;21.714;2023-03-31T07:14:25;99786.78;;;8.34;100.00
43071;BME280;36278;47.952;21.714;2023-03-31T07:16:51;99810.59;;;8.46;100.00
43071;BME280;36278;47.952;21.714;2023-03-31T07:19:16;99798.22;;;8.46;100.00
43071;BME280;36278;47.952;21.714;2023-03-31T07:21:43;99802.31;;;8.39;100.00
43071;BME280;36278;47.952;21.714;2023-03-31T07:24:08;99803.19;;;8.51;100.00
43071;BME280;36278;47.952;21.714;2023-03-31T07:26:34;99799.41;;;8.77;100.00
43071;BME280;36278;47.952;21.714;2023-03-31T07:28:59;99807.81;;;8.82;100.00
43071;BME280;36278;47.952;21.714;2023-03-31T07:31:25;99808.78;;;8.81;100.00
43071;BME280;36278;47.952;21.714;2023-03-31T07:33:51;99809.75;;;8.80;100.00
43071;BME280;36278;47.952;21.714;2023-03-31T07:36:17;99806.97;;;8.93;100.00
43071;BME280;36278;47.952;21.714;2023-03-31T07:38:45;99805.09;;;9.06;100.00
43071;BME280;36278;47.952;21.714;2023-03-31T07:41:16;99819.09;;;8.95;100.00
43071;BME280;36278;47.952;21.714;2023-03-31T07:43:42;99812.13;;;8.72;100.00
43071;BME280;36278;47.952;21.714;2023-03-31T07:46:19;99825.53;;;8.69;100.00
43071;BME280;36278;47.952;21.714;2023-03-31T07:48:46;99833.19;;;8.61;100.00
43071;BME280;36278;47.952;21.714;2023-03-31T07:51:14;99831.06;;;8.66;100.00
43071;BME280;36278;47.952;21.714;2023-03-31T07:53:40;99839.69;;;8.68;100.00
43071;BME280;36278;47.952;21.714;2023-03-31T07:56:05;99840.66;;;8.67;100.00
43071;BME280;36278;47.952;21.714;2023-03-31T07:58:31;99844.47;;;8.63;100.00
43071;BME280;36278;47.952;21.714;2023-03-31T08:00:56;99850.25;;;8.57;100.00
43071;BME280;36278;47.952;21.714;2023-03-31T08:03:22;99836.81;;;8.71;100.00
43071;BME280;36278;47.952;21.714;2023-03-31T08:05:50;99846.34;;;8.74;100.00
43071;BME280;36278;47.952;21.714;2023-03-31T08:08:16;99844.97;;;8.68;100.00
43071;BME280;36278;47.952;21.714;2023-03-31T08:10:42;99833.91;;;8.63;100.00
43071;BME280;36278;47.952;21.714;2023-03-31T08:13:07;99835.66;;;8.75;100.00
43071;BME280;36278;47.952;21.714;2023-03-31T08:15:33;99818.13;;;8.85;100.00
43071;BME280;36278;47.952;21.714;2023-03-31T08:17:58;99831.03;;;9.12;100.00
43071;BME280;36278;47.952;21.714;2023-03-31T08:20:24;99825.63;;;9.25;100.00
43071;BME280;36278;47.952;21.714;2023-03-31T08:22:49;99829.97;;;9.37;100.00
43071;BME280;36278;47.952;21.714;2023-03-31T08:25:15;99823.44;;;9.52;100.00
43071;BME280;36278;47.952;21.714;2023-03-31T08:27:41;99828.16;;;9.38;100.00
43071;BME280;36278;47.952;21.714;2023-03-31T08:30:09;99817.69;;;9.59;100.00
43071;BME280;36278;47.952;21.714;2023-03-31T08:32:35;99821.31;;;9.46;100.00
43071;BME280;36278;47.952;21.714;2023-03-31T08:35:01;99809.41;;;9.41;100.00
43071;BME280;36278;47.952;21.714;2023-03-31T08:37:26;99815.75;;;9.61;100.00
43071;BME280;36278;47.952;21.714;2023-03-31T08:39:54;99815.38;;;9.88;100.00
43071;BME280;36278;47.952;21.714;2023-03-31T08:42:22;99813.38;;;10.01;99.01
43071;BME280;36278;47.952;21.714;2023-03-31T08:44:58;99805.84;;;9.96;100.00
43071;BME280;36278;47.952;21.714;2023-03-31T08:47:26;99807.06;;;9.81;98.76
43071;BME280;36278;47.952;21.714;2023-03-31T08:49:57;99804.47;;;10.13;97.58
43071;BME280;36278;47.952;21.714;2023-03-31T08:52:38;99804.72;;;10.10;97.28
43071;BME280;36278;47.952;21.714;2023-03-31T08:55:11;99810.47;;;10.15;97.66
43071;BME280;36278;47.952;21.714;2023-03-31T08:57:59;99801.66;;;9.82;98.92
43071;BME280;36278;47.952;21.714;2023-03-31T09:00:30;99796.31;;;10.05;99.67
43071;BME280;36278;47.952;21.714;2023-03-31T09:03:10;99790.84;;;10.50;95.39
43071;BME280;36278;47.952;21.714;2023-03-31T09:05:50;99799.00;;;10.79;92.11
43071;BME280;36278;47.952;21.714;2023-03-31T09:08:36;99796.09;;;10.61;92.47
43071;BME280;36278;47.952;21.714;2023-03-31T09:19:00;99777.41;;;10.83;93.67
43071;BME280;36278;47.952;21.714;2023-03-31T09:21:55;99760.59;;;10.94;90.61
43071;BME280;36278;47.952;21.714;2023-03-31T09:24:30;99774.03;;;11.33;89.96
43071;BME280;36278;47.952;21.714;2023-03-31T09:27:06;99765.88;;;11.65;89.19
43071;BME280;36278;47.952;21.714;2023-03-31T09:29:42;99757.38;;;11.81;87.28
43071;BME280;36278;47.952;21.714;2023-03-31T09:32:16;99760.91;;;11.91;84.69
43071;BME280;36278;47.952;21.714;2023-03-31T09:34:42;99757.44;;;11.40;86.18
43071;BME280;36278;47.952;21.714;2023-03-31T09:37:09;99757.47;;;11.10;87.23
43071;BME280;36278;47.952;21.714;2023-03-31T09:39:35;99760.25;;;11.08;88.64
43071;BME280;36278;47.952;21.714;2023-03-31T09:42:01;99761.59;;;11.03;89.52
43071;BME280;36278;47.952;21.714;2023-03-31T09:44:36;99760.63;;;11.34;87.63
43071;BME280;36278;47.952;21.714;2023-03-31T09:47:05;99750.59;;;11.47;87.07
43071;BME280;36278;47.952;21.714;2023-03-31T09:49:34;99748.16;;;11.25;87.76
43071;BME280;36278;47.952;21.714;2023-03-31T09:52:26;99749.00;;;11.26;90.93
43071;BME280;36278;47.952;21.714;2023-03-31T09:54:52;99753.00;;;11.10;89.47
43071;BME280;36278;47.952;21.714;2023-03-31T09:57:30;99746.75;;;11.21;88.46
43071;BME280;36278;47.952;21.714;2023-03-31T10:00:04;99736.22;;;11.40;86.04
43071;BME280;36278;47.952;21.714;2023-03-31T10:02:41;99743.56;;;11.87;83.73
43071;BME280;36278;47.952;21.714;2023-03-31T10:05:30;99737.44;;;11.86;82.68
43071;BME280;36278;47.952;21.714;2023-03-31T10:08:22;99729.34;;;12.17;81.79
43071;BME280;36278;47.952;21.714;2023-03-31T10:10:55;99731.03;;;12.08;81.03
43071;BME280;36278;47.952;21.714;2023-03-31T10:13:48;99728.34;;;12.18;80.73
43071;BME280;36278;47.952;21.714;2023-03-31T10:18:52;99726.81;;;11.86;82.55
43071;BME280;36278;47.952;21.714;2023-03-31T10:21:26;99722.84;;;11.51;83.93
43071;BME280;36278;47.952;21.714;2023-03-31T10:23:53;99721.16;;;11.60;84.45
43071;BME280;36278;47.952;21.714;2023-03-31T10:26:22;99717.47;;;11.92;84.63
43071;BME280;36278;47.952;21.714;2023-03-31T10:28:51;99729.75;;;12.12;82.76
43071;BME280;36278;47.952;21.714;2023-03-31T10:31:33;99721.63;;;11.65;84.82
43071;BME280;36278;47.952;21.714;2023-03-31T10:34:07;99713.50;;;11.67;84.42
43071;BME280;36278;47.952;21.714;2023-03-31T10:36:34;99713.00;;;11.92;84.38
43071;BME280;36278;47.952;21.714;2023-03-31T10:39:04;99701.81;;;11.89;85.22
43071;BME280;36278;47.952;21.714;2023-03-31T10:41:31;99707.69;;;11.83;86.45
43071;BME280;36278;47.952;21.714;2023-03-31T10:43:59;99705.25;;;11.60;86.66
43071;BME280;36278;47.952;21.714;2023-03-31T10:46:45;99697.19;;;12.10;84.50
43071;BME280;36278;47.952;21.714;2023-03-31T10:51:55;99677.53;;;11.84;87.28
43071;BME280;36278;47.952;21.714;2023-03-31T10:54:22;99668.09;;;12.28;84.50
43071;BME280;36278;47.952;21.714;2023-03-31T10:56:53;99669.13;;;12.64;81.23
43071;BME280;36278;47.952;21.714;2023-03-31T10:59:42;99656.81;;;12.73;83.96
43071;BME280;36278;47.952;21.714;2023-03-31T11:08:23;99652.09;;;12.57;84.29
43071;BME280;36278;47.952;21.714;2023-03-31T11:18:52;99635.69;;;13.97;78.12
43071;BME280;36278;47.952;21.714;2023-03-31T11:27:12;99613.78;;;14.90;70.65
43071;BME280;36278;47.952;21.714;2023-03-31T11:32:44;99605.63;;;16.15;66.13
43071;BME280;36278;47.952;21.714;2023-03-31T11:35:48;99592.56;;;16.20;66.24
43071;BME280;36278;47.952;21.714;2023-03-31T11:43:32;99599.91;;;16.26;65.53
43071;BME280;36278;47.952;21.714;2023-03-31T11:51:29;99573.00;;;16.91;63.30
43071;BME280;36278;47.952;21.714;2023-03-31T11:53:58;99576.22;;;16.87;63.08
43071;BME280;36278;47.952;21.714;2023-03-31T11:56:37;99579.75;;;16.79;62.82
43071;BME280;36278;47.952;21.714;2023-03-31T11:59:05;99580.69;;;17.17;61.81
43071;BME280;36278;47.952;21.714;2023-03-31T12:04:35;99566.94;;;17.28;61.24
43071;BME280;36278;47.952;21.714;2023-03-31T12:07:13;99567.06;;;17.35;61.50
43071;BME280;36278;47.952;21.714;2023-03-31T12:10:01;99558.41;;;17.48;60.52
43071;BME280;36278;47.952;21.714;2023-03-31T12:12:34;99554.72;;;18.09;59.23
43071;BME280;36278;47.952;21.714;2023-03-31T12:15:22;99550.50;;;18.74;56.36
43071;BME280;36278;47.952;21.714;2023-03-31T12:17:59;99548.66;;;18.74;55.98
43071;BME280;36278;47.952;21.714;2023-03-31T12:20:33;99549.59;;;18.67;56.98
43071;BME280;36278;47.952;21.714;2023-03-31T12:23:04;99541.19;;;19.49;54.87
43071;BME280;36278;47.952;21.714;2023-03-31T12:25:59;99546.94;;;20.51;52.56
43071;BME280;36278;47.952;21.714;2023-03-31T12:28:26;99542.66;;;21.18;49.73
43071;BME280;36278;47.952;21.714;2023-03-31T12:30:54;99541.72;;;21.45;48.97
43071;BME280;36278;47.952;21.714;2023-03-31T12:33:30;99546.72;;;22.08;48.59
43071;BME280;36278;47.952;21.714;2023-03-31T12:41:46;99549.50;;;19.97;52.45
43071;BME280;36278;47.952;21.714;2023-03-31T12:57:34;99504.63;;;16.89;64.27
43071;BME280;36278;47.952;21.714;2023-03-31T13:02:36;99499.31;;;17.72;61.98
43071;BME280;36278;47.952;21.714;2023-03-31T13:08:08;99486.75;;;17.50;63.30
43071;BME280;36278;47.952;21.714;2023-03-31T13:10:56;99483.47;;;17.62;62.31
43071;BME280;36278;47.952;21.714;2023-03-31T13:13:23;99481.28;;;17.28;63.84
43071;BME280;36278;47.952;21.714;2023-03-31T13:15:55;99468.91;;;17.27;65.02
43071;BME280;36278;47.952;21.714;2023-03-31T13:18:21;99459.50;;;17.08;65.38
43071;BME280;36278;47.952;21.714;2023-03-31T13:21:01;99464.72;;;17.25;63.84
43071;BME280;36278;47.952;21.714;2023-03-31T13:23:32;99463.00;;;17.09;64.99
43071;BME280;36278;47.952;21.714;2023-03-31T13:25:59;99452.41;;;16.93;65.83
43071;BME280;36278;47.952;21.714;2023-03-31T13:31:02;99433.16;;;16.97;66.12
43071;BME280;36278;47.952;21.714;2023-03-31T13:36:25;99435.88;;;17.35;64.30
43071;BME280;36278;47.952;21.714;2023-03-31T14:01:47;99353.00;;;16.58;70.32
43071;BME280;36278;47.952;21.714;2023-03-31T14:07:29;99354.31;;;17.08;68.85
43071;BME280;36278;47.952;21.714;2023-03-31T14:09:56;99350.03;;;16.99;67.64
43071;BME280;36278;47.952;21.714;2023-03-31T14:12:33;99359.66;;;16.70;69.05
43071;BME280;36278;47.952;21.714;2023-03-31T14:14:59;99350.41;;;16.50;69.72
43071;BME280;36278;47.952;21.714;2023-03-31T14:17:27;99347.84;;;16.34;71.23
43071;BME280;36278;47.952;21.714;2023-03-31T14:31:10;99316.66;;;18.34;62.33
43071;BME280;36278;47.952;21.714;2023-03-31T14:36:36;99297.47;;;19.01;59.53
43071;BME280;36278;47.952;21.714;2023-03-31T14:39:06;99294.56;;;18.32;62.21
43071;BME280;36278;47.952;21.714;2023-03-31T14:41:33;99285.66;;;18.68;61.50
43071;BME280;36278;47.952;21.714;2023-03-31T14:44:04;99289.38;;;18.31;62.67
43071;BME280;36278;47.952;21.714;2023-03-31T14:46:32;99292.13;;;18.16;61.93
43071;BME280;36278;47.952;21.714;2023-03-31T14:51:51;99276.44;;;17.62;64.29
43071;BME280;36278;47.952;21.714;2023-03-31T14:54:18;99274.13;;;17.29;66.58
43071;BME280;36278;47.952;21.714;2023-03-31T14:56:55;99269.84;;;16.91;68.19
43071;BME280;36278;47.952;21.714;2023-03-31T14:59:30;99269.03;;;16.90;67.45
43071;BME280;36278;47.952;21.714;2023-03-31T15:01:58;99268.66;;;16.56;69.35
43071;BME280;36278;47.952;21.714;2023-03-31T15:04:28;99267.59;;;16.42;69.60
43071;BME280;36278;47.952;21.714;2023-03-31T15:06:55;99271.63;;;16.15;71.45
43071;BME280;36278;47.952;21.714;2023-03-31T15:11:54;99263.94;;;15.50;74.13
43071;BME280;36278;47.952;21.714;2023-03-31T15:14:21;99264.00;;;15.33;75.39
43071;BME280;36278;47.952;21.714;2023-03-31T15:16:48;99259.03;;;15.22;76.35
43071;BME280;36278;47.952;21.714;2023-03-31T15:19:16;99259.56;;;15.18;76.35
43071;BME280;36278;47.952;21.714;2023-03-31T15:21:43;99256.91;;;15.09;77.55
43071;BME280;36278;47.952;21.714;2023-03-31T15:24:11;99252.63;;;14.92;77.69
43071;BME280;36278;47.952;21.714;2023-03-31T15:27:02;99257.63;;;14.87;78.91
43071;BME280;36278;47.952;21.714;2023-03-31T15:29:37;99251.28;;;14.80;80.14
43071;BME280;36278;47.952;21.714;2023-03-31T15:32:11;99244.63;;;14.84;79.71
43071;BME280;36278;47.952;21.714;2023-03-31T15:34:38;99238.50;;;14.75;80.63
43071;BME280;36278;47.952;21.714;2023-03-31T15:37:06;99246.66;;;14.66;80.75
43071;BME280;36278;47.952;21.714;2023-03-31T15:39:32;99238.34;;;14.52;81.93
43071;BME280;36278;47.952;21.714;2023-03-31T15:42:04;99234.31;;;14.40;83.01
43071;BME280;36278;47.952;21.714;2023-03-31T15:44:34;99238.31;;;14.44;83.19
43071;BME280;36278;47.952;21.714;2023-03-31T15:47:19;99226.50;;;14.39;83.23
43071;BME280;36278;47.952;21.714;2023-03-31T15:50:02;99231.00;;;14.38;84.58
43071;BME280;36278;47.952;21.714;2023-03-31T15:52:44;99224.16;;;14.36;84.24